台中市, 台灣

2014年10月02日 06時17分 (GMT +0800)
ITAIWAND2 | Change Station
CLOSE
Current Station
個人氣象站
Location: Dali, Taichung / Taiwan
海拔: 200 ft
附近的氣象站

海拔 200 ft 24.11 °N, 120.68 °E | Updated 2 minutes ago

Scattered Clouds
多雲時晴
78.3 °F
感覺像 81 °F
0.0
風 變化 風 來自 西南偏南
Gusts 0.0 英里每小時

今日
高 -- | 低 -- °F
--% 降水機率
昨天
高 -- | 低 -- °F
Precip. -- 英寸
5:49 AM 5:43 PM
第一季, 51% visible
氣壓 29.83 英寸
能見度 4.3 英里
多雲 少數 1200 ft
多雲時晴 10000 ft
高溫指數 81 °F
露點 70 °F
濕度 77%
降雨量 0.00 英寸
積雪深度 不適用。
紫外線 0 / 12
花粉 不適用。
空氣質素 不適用。
Flu Activity 不適用。
METAR RCMQ 012200Z 01003KT 7000 FEW012 SCT100 22/21 Q1010 NOSIG RMK A2985

More Conditions Fewer Conditions

氣壓 29.83 英寸
能見度 4.3 英里
多雲 少數 1200 ft
多雲時晴 10000 ft
高溫指數 81 °F
露點 70 °F
濕度 77%
降雨量 0.00 英寸
積雪深度 不適用。
紫外線 0 / 12
花粉 不適用。
空氣質素 不適用。
Flu Activity 不適用。
METAR RCMQ 012200Z 01003KT 7000 FEW012 SCT100 22/21 Q1010 NOSIG RMK A2985

More Conditions Fewer Conditions

10-Day Weather Forecast

Almanac

天文

Oct. 02, 2014 昇起 降落
實際時間 05:49 CST 17:43 CST
民用曙暮光 05:26 CST 18:06 CST
航海曙暮光 05:00 CST 18:32 CST
天文學微明 04:34 CST 18:59 CST
月亮 12:45 CST (10/2) 無月落
可見光的長度 12h 39m
白晝時間
11h 54m
Tomorrow will be 1m 23s shorter.
第一季, 51% of the Moon is Illuminated
10月 1
第一季
10月 8
滿月
10月 15
第四季
10月 23
10月 30
第一季

昨天之最

國家高溫 國家低溫

Community

WunderPhotos

Upload Photos

1,758,058 照片已上傳!

WunderBlogs® & News

By Dr. Jeff Masters
Director of Meteorology, Weather Underground
By Kari Strenfel
Meteorologist, Weather Underground
By Christopher C. Burt
Weather Historian, Weather Underground
October 1, 2014
October 1, 2014
October 1, 2014

Nearby

積雪量

Not available.

地震活動

城市 距離 時間和日期
附近沒有最近發生的地震活動。
顯示的最小幅度是2.5。

沿海水溫

地點 溫度
無任何天氣監測站報告

附近的氣象站